sensor_id;sensor_type;location;lat;lon;timestamp;P1;durP1;ratioP1;P2;durP2;ratioP2
31594;SDS011;18200;48.726;8.892;2024-03-17T00:02:37;12.40;;;7.80;;
31594;SDS011;18200;48.726;8.892;2024-03-17T00:06:38;13.05;;;7.60;;
31594;SDS011;18200;48.726;8.892;2024-03-17T00:10:38;11.25;;;6.95;;
31594;SDS011;18200;48.726;8.892;2024-03-17T00:14:38;9.63;;;6.20;;
31594;SDS011;18200;48.726;8.892;2024-03-17T00:18:42;9.90;;;5.75;;
31594;SDS011;18200;48.726;8.892;2024-03-17T00:22:43;11.18;;;7.13;;
31594;SDS011;18200;48.726;8.892;2024-03-17T00:26:43;12.02;;;7.28;;
31594;SDS011;18200;48.726;8.892;2024-03-17T00:30:45;9.60;;;5.70;;
31594;SDS011;18200;48.726;8.892;2024-03-17T00:34:46;8.77;;;5.82;;
31594;SDS011;18200;48.726;8.892;2024-03-17T00:38:46;10.77;;;6.55;;
31594;SDS011;18200;48.726;8.892;2024-03-17T00:42:47;14.65;;;8.73;;
31594;SDS011;18200;48.726;8.892;2024-03-17T00:46:47;19.33;;;7.85;;
31594;SDS011;18200;48.726;8.892;2024-03-17T00:50:54;12.65;;;7.68;;
31594;SDS011;18200;48.726;8.892;2024-03-17T00:54:58;20.27;;;8.15;;
31594;SDS011;18200;48.726;8.892;2024-03-17T00:58:58;14.65;;;7.07;;
31594;SDS011;18200;48.726;8.892;2024-03-17T01:02:59;13.98;;;6.88;;
31594;SDS011;18200;48.726;8.892;2024-03-17T01:06:59;9.95;;;6.10;;
31594;SDS011;18200;48.726;8.892;2024-03-17T01:11:00;10.90;;;5.93;;
31594;SDS011;18200;48.726;8.892;2024-03-17T01:15:03;9.05;;;5.60;;
31594;SDS011;18200;48.726;8.892;2024-03-17T01:19:05;11.07;;;5.15;;
31594;SDS011;18200;48.726;8.892;2024-03-17T01:23:05;7.43;;;4.70;;
31594;SDS011;18200;48.726;8.892;2024-03-17T01:27:06;8.23;;;4.95;;
31594;SDS011;18200;48.726;8.892;2024-03-17T01:31:06;8.88;;;4.60;;
31594;SDS011;18200;48.726;8.892;2024-03-17T01:35:07;7.35;;;4.78;;
31594;SDS011;18200;48.726;8.892;2024-03-17T01:39:08;7.60;;;4.88;;
31594;SDS011;18200;48.726;8.892;2024-03-17T01:43:09;7.95;;;4.93;;
31594;SDS011;18200;48.726;8.892;2024-03-17T01:47:11;10.68;;;5.75;;
31594;SDS011;18200;48.726;8.892;2024-03-17T01:51:12;9.93;;;5.63;;
31594;SDS011;18200;48.726;8.892;2024-03-17T01:55:15;8.83;;;5.17;;
31594;SDS011;18200;48.726;8.892;2024-03-17T01:59:17;8.15;;;4.28;;
31594;SDS011;18200;48.726;8.892;2024-03-17T02:03:17;9.20;;;5.30;;
31594;SDS011;18200;48.726;8.892;2024-03-17T02:07:18;7.20;;;4.97;;
31594;SDS011;18200;48.726;8.892;2024-03-17T02:15:26;8.60;;;5.28;;
31594;SDS011;18200;48.726;8.892;2024-03-17T02:19:27;8.15;;;5.10;;
31594;SDS011;18200;48.726;8.892;2024-03-17T02:23:28;6.90;;;4.85;;
31594;SDS011;18200;48.726;8.892;2024-03-17T02:27:28;13.15;;;5.82;;
31594;SDS011;18200;48.726;8.892;2024-03-17T02:31:29;9.05;;;5.60;;
31594;SDS011;18200;48.726;8.892;2024-03-17T02:35:30;9.65;;;5.22;;
31594;SDS011;18200;48.726;8.892;2024-03-17T02:39:31;9.02;;;5.22;;
31594;SDS011;18200;48.726;8.892;2024-03-17T02:43:34;6.70;;;4.80;;
31594;SDS011;18200;48.726;8.892;2024-03-17T02:47:37;8.73;;;5.50;;
31594;SDS011;18200;48.726;8.892;2024-03-17T02:51:38;8.90;;;4.97;;
31594;SDS011;18200;48.726;8.892;2024-03-17T02:55:39;10.18;;;4.72;;
31594;SDS011;18200;48.726;8.892;2024-03-17T02:59:39;8.07;;;5.15;;
31594;SDS011;18200;48.726;8.892;2024-03-17T03:03:40;10.27;;;5.63;;
31594;SDS011;18200;48.726;8.892;2024-03-17T03:07:40;8.25;;;5.38;;
31594;SDS011;18200;48.726;8.892;2024-03-17T03:11:41;10.15;;;6.15;;
31594;SDS011;18200;48.726;8.892;2024-03-17T03:15:41;15.82;;;7.35;;
31594;SDS011;18200;48.726;8.892;2024-03-17T03:19:42;16.55;;;9.70;;
31594;SDS011;18200;48.726;8.892;2024-03-17T03:23:42;14.77;;;8.57;;
31594;SDS011;18200;48.726;8.892;2024-03-17T03:27:44;12.25;;;7.13;;
31594;SDS011;18200;48.726;8.892;2024-03-17T03:31:45;8.88;;;5.70;;
31594;SDS011;18200;48.726;8.892;2024-03-17T03:35:45;8.63;;;5.53;;
31594;SDS011;18200;48.726;8.892;2024-03-17T03:39:46;9.55;;;5.88;;
31594;SDS011;18200;48.726;8.892;2024-03-17T03:43:46;7.63;;;5.25;;
31594;SDS011;18200;48.726;8.892;2024-03-17T03:47:47;10.00;;;6.00;;
31594;SDS011;18200;48.726;8.892;2024-03-17T03:51:48;7.60;;;5.28;;
31594;SDS011;18200;48.726;8.892;2024-03-17T03:55:48;8.63;;;5.28;;
31594;SDS011;18200;48.726;8.892;2024-03-17T03:59:49;7.60;;;5.00;;
31594;SDS011;18200;48.726;8.892;2024-03-17T04:03:49;9.15;;;5.03;;
31594;SDS011;18200;48.726;8.892;2024-03-17T04:07:49;15.00;;;5.13;;
31594;SDS011;18200;48.726;8.892;2024-03-17T04:11:50;8.32;;;4.57;;
31594;SDS011;18200;48.726;8.892;2024-03-17T04:15:50;9.60;;;5.90;;
31594;SDS011;18200;48.726;8.892;2024-03-17T04:19:56;9.32;;;5.28;;
31594;SDS011;18200;48.726;8.892;2024-03-17T04:23:57;8.25;;;5.32;;
31594;SDS011;18200;48.726;8.892;2024-03-17T04:27:57;7.97;;;5.13;;
31594;SDS011;18200;48.726;8.892;2024-03-17T04:31:58;7.20;;;4.55;;
31594;SDS011;18200;48.726;8.892;2024-03-17T04:35:58;8.52;;;5.43;;
31594;SDS011;18200;48.726;8.892;2024-03-17T04:39:59;9.55;;;5.32;;
31594;SDS011;18200;48.726;8.892;2024-03-17T04:43:59;9.45;;;5.45;;
31594;SDS011;18200;48.726;8.892;2024-03-17T04:48:00;6.90;;;4.72;;
31594;SDS011;18200;48.726;8.892;2024-03-17T04:52:01;9.45;;;4.90;;
31594;SDS011;18200;48.726;8.892;2024-03-17T04:56:02;6.85;;;4.88;;
31594;SDS011;18200;48.726;8.892;2024-03-17T05:00:04;11.23;;;5.10;;
31594;SDS011;18200;48.726;8.892;2024-03-17T05:04:07;8.30;;;5.22;;
31594;SDS011;18200;48.726;8.892;2024-03-17T05:08:07;8.05;;;4.90;;
31594;SDS011;18200;48.726;8.892;2024-03-17T05:12:08;11.40;;;8.00;;
31594;SDS011;18200;48.726;8.892;2024-03-17T05:16:08;11.45;;;6.75;;
31594;SDS011;18200;48.726;8.892;2024-03-17T05:20:09;9.35;;;6.25;;
31594;SDS011;18200;48.726;8.892;2024-03-17T05:24:10;13.57;;;6.25;;
31594;SDS011;18200;48.726;8.892;2024-03-17T05:28:12;14.23;;;7.05;;
31594;SDS011;18200;48.726;8.892;2024-03-17T05:32:12;10.30;;;5.30;;
31594;SDS011;18200;48.726;8.892;2024-03-17T05:36:13;9.73;;;6.22;;
31594;SDS011;18200;48.726;8.892;2024-03-17T05:40:14;11.60;;;6.28;;
31594;SDS011;18200;48.726;8.892;2024-03-17T05:44:15;11.85;;;5.47;;
31594;SDS011;18200;48.726;8.892;2024-03-17T05:48:15;10.60;;;6.00;;
31594;SDS011;18200;48.726;8.892;2024-03-17T05:52:16;7.53;;;4.97;;
31594;SDS011;18200;48.726;8.892;2024-03-17T05:56:16;11.18;;;5.57;;
31594;SDS011;18200;48.726;8.892;2024-03-17T06:00:16;10.20;;;5.35;;
31594;SDS011;18200;48.726;8.892;2024-03-17T06:04:17;8.65;;;5.55;;
31594;SDS011;18200;48.726;8.892;2024-03-17T06:08:17;7.25;;;4.47;;
31594;SDS011;18200;48.726;8.892;2024-03-17T06:12:18;7.90;;;5.53;;
31594;SDS011;18200;48.726;8.892;2024-03-17T06:16:18;9.35;;;5.93;;
31594;SDS011;18200;48.726;8.892;2024-03-17T06:20:20;11.60;;;7.15;;
31594;SDS011;18200;48.726;8.892;2024-03-17T06:24:21;8.98;;;5.93;;
31594;SDS011;18200;48.726;8.892;2024-03-17T06:28:22;9.02;;;5.30;;
31594;SDS011;18200;48.726;8.892;2024-03-17T06:32:26;7.72;;;5.10;;
31594;SDS011;18200;48.726;8.892;2024-03-17T06:36:28;13.25;;;6.45;;
31594;SDS011;18200;48.726;8.892;2024-03-17T06:40:29;12.60;;;7.18;;
31594;SDS011;18200;48.726;8.892;2024-03-17T06:44:30;10.00;;;5.70;;
31594;SDS011;18200;48.726;8.892;2024-03-17T06:48:33;9.75;;;5.63;;
31594;SDS011;18200;48.726;8.892;2024-03-17T06:52:34;11.65;;;5.95;;
31594;SDS011;18200;48.726;8.892;2024-03-17T06:56:35;9.60;;;5.35;;
31594;SDS011;18200;48.726;8.892;2024-03-17T07:04:46;7.57;;;4.70;;
31594;SDS011;18200;48.726;8.892;2024-03-17T07:08:52;11.98;;;6.68;;
31594;SDS011;18200;48.726;8.892;2024-03-17T07:13:29;9.88;;;5.80;;
31594;SDS011;18200;48.726;8.892;2024-03-17T07:22:31;12.18;;;6.85;;
31594;SDS011;18200;48.726;8.892;2024-03-17T07:26:33;16.17;;;8.38;;
31594;SDS011;18200;48.726;8.892;2024-03-17T07:30:35;11.80;;;7.65;;
31594;SDS011;18200;48.726;8.892;2024-03-17T07:34:36;14.80;;;6.60;;
31594;SDS011;18200;48.726;8.892;2024-03-17T07:54:04;11.68;;;7.22;;
31594;SDS011;18200;48.726;8.892;2024-03-17T07:58:08;9.73;;;6.47;;
31594;SDS011;18200;48.726;8.892;2024-03-17T08:02:10;11.77;;;6.40;;
31594;SDS011;18200;48.726;8.892;2024-03-17T08:06:11;9.38;;;6.50;;
31594;SDS011;18200;48.726;8.892;2024-03-17T08:10:12;11.57;;;7.40;;
31594;SDS011;18200;48.726;8.892;2024-03-17T08:14:13;14.75;;;8.57;;
31594;SDS011;18200;48.726;8.892;2024-03-17T08:18:16;9.15;;;6.75;;
31594;SDS011;18200;48.726;8.892;2024-03-17T08:22:16;9.77;;;6.65;;
31594;SDS011;18200;48.726;8.892;2024-03-17T08:26:17;14.43;;;8.05;;
31594;SDS011;18200;48.726;8.892;2024-03-17T08:30:17;9.32;;;6.55;;
31594;SDS011;18200;48.726;8.892;2024-03-17T08:34:19;12.50;;;7.90;;
31594;SDS011;18200;48.726;8.892;2024-03-17T08:38:20;10.07;;;7.18;;
31594;SDS011;18200;48.726;8.892;2024-03-17T08:42:24;12.18;;;6.97;;
31594;SDS011;18200;48.726;8.892;2024-03-17T08:46:25;12.88;;;7.22;;
31594;SDS011;18200;48.726;8.892;2024-03-17T08:50:26;10.20;;;7.18;;
31594;SDS011;18200;48.726;8.892;2024-03-17T08:54:27;10.48;;;6.20;;
31594;SDS011;18200;48.726;8.892;2024-03-17T08:58:28;10.27;;;6.28;;
31594;SDS011;18200;48.726;8.892;2024-03-17T09:02:29;10.82;;;6.80;;
31594;SDS011;18200;48.726;8.892;2024-03-17T09:06:30;9.10;;;5.50;;
31594;SDS011;18200;48.726;8.892;2024-03-17T09:10:31;11.00;;;7.28;;
31594;SDS011;18200;48.726;8.892;2024-03-17T09:14:32;12.27;;;7.93;;
31594;SDS011;18200;48.726;8.892;2024-03-17T09:22:38;7.50;;;5.25;;
31594;SDS011;18200;48.726;8.892;2024-03-17T09:26:38;10.85;;;6.40;;
31594;SDS011;18200;48.726;8.892;2024-03-17T09:30:39;13.38;;;6.60;;
31594;SDS011;18200;48.726;8.892;2024-03-17T09:34:47;9.00;;;5.68;;
31594;SDS011;18200;48.726;8.892;2024-03-17T09:38:50;7.75;;;5.60;;
31594;SDS011;18200;48.726;8.892;2024-03-17T09:42:50;13.35;;;5.68;;
31594;SDS011;18200;48.726;8.892;2024-03-17T09:46:51;9.38;;;5.40;;
31594;SDS011;18200;48.726;8.892;2024-03-17T09:50:52;14.10;;;7.10;;
31594;SDS011;18200;48.726;8.892;2024-03-17T09:55:35;8.45;;;5.43;;
31594;SDS011;18200;48.726;8.892;2024-03-17T10:07:44;7.22;;;5.03;;
31594;SDS011;18200;48.726;8.892;2024-03-17T10:11:45;7.53;;;5.32;;
31594;SDS011;18200;48.726;8.892;2024-03-17T10:15:48;7.43;;;4.80;;
31594;SDS011;18200;48.726;8.892;2024-03-17T10:19:50;7.82;;;4.85;;
31594;SDS011;18200;48.726;8.892;2024-03-17T10:24:03;11.55;;;5.70;;
31594;SDS011;18200;48.726;8.892;2024-03-17T10:28:12;7.60;;;4.60;;
31594;SDS011;18200;48.726;8.892;2024-03-17T10:32:14;10.80;;;5.07;;
31594;SDS011;18200;48.726;8.892;2024-03-17T10:36:18;7.43;;;4.25;;
31594;SDS011;18200;48.726;8.892;2024-03-17T10:40:19;6.80;;;4.72;;
31594;SDS011;18200;48.726;8.892;2024-03-17T10:44:19;10.25;;;4.78;;
31594;SDS011;18200;48.726;8.892;2024-03-17T10:48:20;6.28;;;4.05;;
31594;SDS011;18200;48.726;8.892;2024-03-17T10:52:24;16.90;;;9.03;;
31594;SDS011;18200;48.726;8.892;2024-03-17T10:56:28;7.55;;;3.92;;
31594;SDS011;18200;48.726;8.892;2024-03-17T11:00:29;6.75;;;4.50;;
31594;SDS011;18200;48.726;8.892;2024-03-17T11:04:31;5.35;;;3.33;;
31594;SDS011;18200;48.726;8.892;2024-03-17T11:08:32;5.88;;;3.97;;
31594;SDS011;18200;48.726;8.892;2024-03-17T11:12:39;7.53;;;3.17;;
31594;SDS011;18200;48.726;8.892;2024-03-17T11:16:44;4.88;;;2.72;;
31594;SDS011;18200;48.726;8.892;2024-03-17T11:21:01;4.72;;;2.55;;
31594;SDS011;18200;48.726;8.892;2024-03-17T11:25:36;4.78;;;2.33;;
31594;SDS011;18200;48.726;8.892;2024-03-17T11:29:37;7.90;;;2.40;;
31594;SDS011;18200;48.726;8.892;2024-03-17T11:37:43;3.63;;;1.80;;
31594;SDS011;18200;48.726;8.892;2024-03-17T11:41:43;3.15;;;1.38;;
31594;SDS011;18200;48.726;8.892;2024-03-17T11:45:47;4.05;;;1.50;;
31594;SDS011;18200;48.726;8.892;2024-03-17T11:49:54;3.20;;;1.60;;
31594;SDS011;18200;48.726;8.892;2024-03-17T11:53:58;4.32;;;2.00;;
31594;SDS011;18200;48.726;8.892;2024-03-17T11:57:59;3.35;;;1.70;;
31594;SDS011;18200;48.726;8.892;2024-03-17T12:02:00;3.97;;;1.60;;
31594;SDS011;18200;48.726;8.892;2024-03-17T12:06:02;2.83;;;1.52;;
31594;SDS011;18200;48.726;8.892;2024-03-17T12:10:05;3.63;;;1.30;;
31594;SDS011;18200;48.726;8.892;2024-03-17T12:14:20;3.80;;;1.67;;
31594;SDS011;18200;48.726;8.892;2024-03-17T12:18:20;4.32;;;1.60;;
31594;SDS011;18200;48.726;8.892;2024-03-17T12:22:22;5.32;;;2.10;;
31594;SDS011;18200;48.726;8.892;2024-03-17T12:26:24;2.65;;;1.17;;
31594;SDS011;18200;48.726;8.892;2024-03-17T12:30:25;5.05;;;1.90;;
31594;SDS011;18200;48.726;8.892;2024-03-17T12:34:26;3.22;;;1.60;;
31594;SDS011;18200;48.726;8.892;2024-03-17T12:38:27;2.50;;;1.10;;
31594;SDS011;18200;48.726;8.892;2024-03-17T12:42:28;6.30;;;1.30;;
31594;SDS011;18200;48.726;8.892;2024-03-17T12:46:29;3.70;;;1.17;;
31594;SDS011;18200;48.726;8.892;2024-03-17T12:50:29;6.82;;;1.48;;
31594;SDS011;18200;48.726;8.892;2024-03-17T12:54:30;3.22;;;1.58;;
31594;SDS011;18200;48.726;8.892;2024-03-17T12:58:30;4.35;;;1.55;;
31594;SDS011;18200;48.726;8.892;2024-03-17T13:02:49;4.55;;;1.23;;
31594;SDS011;18200;48.726;8.892;2024-03-17T13:06:49;2.45;;;1.17;;
31594;SDS011;18200;48.726;8.892;2024-03-17T13:10:50;4.00;;;1.13;;
31594;SDS011;18200;48.726;8.892;2024-03-17T13:14:50;3.45;;;0.98;;
31594;SDS011;18200;48.726;8.892;2024-03-17T13:18:51;3.28;;;1.20;;
31594;SDS011;18200;48.726;8.892;2024-03-17T13:22:51;4.88;;;2.28;;
31594;SDS011;18200;48.726;8.892;2024-03-17T13:26:52;2.95;;;1.45;;
31594;SDS011;18200;48.726;8.892;2024-03-17T13:30:55;6.13;;;1.90;;
31594;SDS011;18200;48.726;8.892;2024-03-17T13:34:56;4.22;;;1.50;;
31594;SDS011;18200;48.726;8.892;2024-03-17T13:38:56;6.05;;;1.58;;
31594;SDS011;18200;48.726;8.892;2024-03-17T13:42:56;4.90;;;1.50;;
31594;SDS011;18200;48.726;8.892;2024-03-17T13:46:57;4.30;;;1.23;;
31594;SDS011;18200;48.726;8.892;2024-03-17T13:50:58;4.63;;;1.40;;
31594;SDS011;18200;48.726;8.892;2024-03-17T13:54:59;3.50;;;1.25;;
31594;SDS011;18200;48.726;8.892;2024-03-17T13:58:59;3.97;;;1.65;;
31594;SDS011;18200;48.726;8.892;2024-03-17T14:02:59;4.07;;;1.40;;
31594;SDS011;18200;48.726;8.892;2024-03-17T14:07:00;6.25;;;1.48;;
31594;SDS011;18200;48.726;8.892;2024-03-17T14:11:01;4.80;;;1.13;;
31594;SDS011;18200;48.726;8.892;2024-03-17T14:15:03;6.20;;;1.58;;
31594;SDS011;18200;48.726;8.892;2024-03-17T14:19:05;5.05;;;1.20;;
31594;SDS011;18200;48.726;8.892;2024-03-17T14:23:05;3.78;;;1.10;;
31594;SDS011;18200;48.726;8.892;2024-03-17T14:27:07;4.85;;;1.35;;
31594;SDS011;18200;48.726;8.892;2024-03-17T14:31:07;3.08;;;1.00;;
31594;SDS011;18200;48.726;8.892;2024-03-17T14:35:15;3.10;;;1.40;;
31594;SDS011;18200;48.726;8.892;2024-03-17T14:39:17;2.92;;;1.33;;
31594;SDS011;18200;48.726;8.892;2024-03-17T14:43:17;3.05;;;1.45;;
31594;SDS011;18200;48.726;8.892;2024-03-17T14:47:18;3.22;;;1.70;;
31594;SDS011;18200;48.726;8.892;2024-03-17T14:51:18;3.10;;;1.33;;
31594;SDS011;18200;48.726;8.892;2024-03-17T14:55:21;2.63;;;1.13;;
31594;SDS011;18200;48.726;8.892;2024-03-17T14:59:21;3.83;;;1.52;;
31594;SDS011;18200;48.726;8.892;2024-03-17T15:03:21;4.80;;;1.73;;
31594;SDS011;18200;48.726;8.892;2024-03-17T15:07:22;5.15;;;1.85;;
31594;SDS011;18200;48.726;8.892;2024-03-17T15:11:23;3.63;;;1.58;;
31594;SDS011;18200;48.726;8.892;2024-03-17T15:15:24;2.28;;;1.20;;
31594;SDS011;18200;48.726;8.892;2024-03-17T15:19:24;3.33;;;1.45;;
31594;SDS011;18200;48.726;8.892;2024-03-17T15:23:25;4.40;;;1.30;;
31594;SDS011;18200;48.726;8.892;2024-03-17T15:27:31;6.53;;;3.90;;
31594;SDS011;18200;48.726;8.892;2024-03-17T15:31:32;7.95;;;4.22;;
31594;SDS011;18200;48.726;8.892;2024-03-17T15:35:32;8.40;;;4.63;;
31594;SDS011;18200;48.726;8.892;2024-03-17T15:39:34;6.22;;;3.67;;
31594;SDS011;18200;48.726;8.892;2024-03-17T15:43:35;7.07;;;4.00;;
31594;SDS011;18200;48.726;8.892;2024-03-17T15:47:38;11.45;;;5.50;;
31594;SDS011;18200;48.726;8.892;2024-03-17T15:51:38;9.55;;;3.85;;
31594;SDS011;18200;48.726;8.892;2024-03-17T15:55:38;7.50;;;4.00;;
31594;SDS011;18200;48.726;8.892;2024-03-17T15:59:39;8.52;;;4.60;;
31594;SDS011;18200;48.726;8.892;2024-03-17T16:03:40;8.65;;;3.88;;
31594;SDS011;18200;48.726;8.892;2024-03-17T16:07:44;5.60;;;3.83;;
31594;SDS011;18200;48.726;8.892;2024-03-17T16:11:45;9.13;;;3.60;;
31594;SDS011;18200;48.726;8.892;2024-03-17T16:15:45;7.60;;;3.45;;
31594;SDS011;18200;48.726;8.892;2024-03-17T16:19:47;18.80;;;5.22;;
31594;SDS011;18200;48.726;8.892;2024-03-17T16:23:50;12.45;;;4.35;;
31594;SDS011;18200;48.726;8.892;2024-03-17T16:27:54;9.23;;;4.82;;
31594;SDS011;18200;48.726;8.892;2024-03-17T16:31:55;9.05;;;4.90;;
31594;SDS011;18200;48.726;8.892;2024-03-17T16:35:55;7.50;;;4.05;;
31594;SDS011;18200;48.726;8.892;2024-03-17T16:39:56;8.10;;;4.15;;
31594;SDS011;18200;48.726;8.892;2024-03-17T16:48:23;9.52;;;4.28;;
31594;SDS011;18200;48.726;8.892;2024-03-17T16:52:23;7.75;;;4.35;;
31594;SDS011;18200;48.726;8.892;2024-03-17T16:56:26;8.02;;;4.40;;
31594;SDS011;18200;48.726;8.892;2024-03-17T17:00:26;9.25;;;4.95;;
31594;SDS011;18200;48.726;8.892;2024-03-17T17:04:27;10.00;;;5.07;;
31594;SDS011;18200;48.726;8.892;2024-03-17T17:08:27;18.25;;;7.95;;
31594;SDS011;18200;48.726;8.892;2024-03-17T17:12:29;24.33;;;12.07;;
31594;SDS011;18200;48.726;8.892;2024-03-17T17:16:29;9.90;;;5.78;;
31594;SDS011;18200;48.726;8.892;2024-03-17T17:20:30;10.30;;;5.85;;
31594;SDS011;18200;48.726;8.892;2024-03-17T17:24:33;9.80;;;4.93;;
31594;SDS011;18200;48.726;8.892;2024-03-17T17:28:34;7.95;;;5.40;;
31594;SDS011;18200;48.726;8.892;2024-03-17T17:32:34;8.18;;;5.03;;
31594;SDS011;18200;48.726;8.892;2024-03-17T17:36:35;11.55;;;7.20;;
31594;SDS011;18200;48.726;8.892;2024-03-17T17:40:38;28.60;;;16.13;;
31594;SDS011;18200;48.726;8.892;2024-03-17T17:44:39;15.25;;;6.80;;
31594;SDS011;18200;48.726;8.892;2024-03-17T17:48:40;20.35;;;9.63;;
31594;SDS011;18200;48.726;8.892;2024-03-17T17:52:40;14.90;;;8.73;;
31594;SDS011;18200;48.726;8.892;2024-03-17T17:56:41;13.20;;;6.40;;
31594;SDS011;18200;48.726;8.892;2024-03-17T18:00:41;12.32;;;6.95;;
31594;SDS011;18200;48.726;8.892;2024-03-17T18:04:41;11.18;;;5.75;;
31594;SDS011;18200;48.726;8.892;2024-03-17T18:08:42;6.80;;;3.80;;
31594;SDS011;18200;48.726;8.892;2024-03-17T18:12:43;6.88;;;3.42;;
31594;SDS011;18200;48.726;8.892;2024-03-17T18:16:44;7.68;;;4.40;;
31594;SDS011;18200;48.726;8.892;2024-03-17T18:20:54;13.13;;;5.00;;
31594;SDS011;18200;48.726;8.892;2024-03-17T18:24:56;7.30;;;3.20;;
31594;SDS011;18200;48.726;8.892;2024-03-17T18:28:56;7.38;;;3.90;;
31594;SDS011;18200;48.726;8.892;2024-03-17T18:32:57;8.02;;;4.93;;
31594;SDS011;18200;48.726;8.892;2024-03-17T18:37:00;9.95;;;5.60;;
31594;SDS011;18200;48.726;8.892;2024-03-17T18:41:04;9.52;;;4.80;;
31594;SDS011;18200;48.726;8.892;2024-03-17T18:45:08;15.48;;;7.10;;
31594;SDS011;18200;48.726;8.892;2024-03-17T18:49:09;19.30;;;11.13;;
31594;SDS011;18200;48.726;8.892;2024-03-17T18:53:10;14.75;;;8.50;;
31594;SDS011;18200;48.726;8.892;2024-03-17T18:57:11;14.05;;;8.65;;
31594;SDS011;18200;48.726;8.892;2024-03-17T19:01:11;14.63;;;7.80;;
31594;SDS011;18200;48.726;8.892;2024-03-17T19:05:12;14.25;;;7.00;;
31594;SDS011;18200;48.726;8.892;2024-03-17T19:09:12;14.45;;;9.55;;
31594;SDS011;18200;48.726;8.892;2024-03-17T19:13:15;17.40;;;10.85;;
31594;SDS011;18200;48.726;8.892;2024-03-17T19:17:16;14.43;;;9.05;;
31594;SDS011;18200;48.726;8.892;2024-03-17T19:21:16;18.25;;;12.05;;
31594;SDS011;18200;48.726;8.892;2024-03-17T19:25:17;20.02;;;12.95;;
31594;SDS011;18200;48.726;8.892;2024-03-17T19:29:17;27.10;;;17.55;;
31594;SDS011;18200;48.726;8.892;2024-03-17T19:33:18;21.10;;;14.38;;
31594;SDS011;18200;48.726;8.892;2024-03-17T19:37:18;33.88;;;19.13;;
31594;SDS011;18200;48.726;8.892;2024-03-17T19:41:22;45.67;;;26.75;;
31594;SDS011;18200;48.726;8.892;2024-03-17T19:45:23;20.45;;;11.93;;
31594;SDS011;18200;48.726;8.892;2024-03-17T19:49:23;17.33;;;8.77;;
31594;SDS011;18200;48.726;8.892;2024-03-17T19:53:24;15.48;;;7.75;;
31594;SDS011;18200;48.726;8.892;2024-03-17T19:57:24;13.95;;;8.38;;
31594;SDS011;18200;48.726;8.892;2024-03-17T20:01:24;10.95;;;7.25;;
31594;SDS011;18200;48.726;8.892;2024-03-17T20:05:25;17.55;;;9.15;;
31594;SDS011;18200;48.726;8.892;2024-03-17T20:09:25;34.95;;;22.85;;
31594;SDS011;18200;48.726;8.892;2024-03-17T20:13:26;24.50;;;16.80;;
31594;SDS011;18200;48.726;8.892;2024-03-17T20:17:27;49.22;;;28.67;;
31594;SDS011;18200;48.726;8.892;2024-03-17T20:21:28;20.73;;;12.45;;
31594;SDS011;18200;48.726;8.892;2024-03-17T20:25:28;41.45;;;24.33;;
31594;SDS011;18200;48.726;8.892;2024-03-17T20:29:29;32.60;;;20.17;;
31594;SDS011;18200;48.726;8.892;2024-03-17T20:33:30;21.67;;;14.13;;
31594;SDS011;18200;48.726;8.892;2024-03-17T20:37:30;16.98;;;10.25;;
31594;SDS011;18200;48.726;8.892;2024-03-17T20:41:31;15.95;;;12.27;;
31594;SDS011;18200;48.726;8.892;2024-03-17T20:45:32;34.60;;;24.02;;
31594;SDS011;18200;48.726;8.892;2024-03-17T20:49:32;28.40;;;19.08;;
31594;SDS011;18200;48.726;8.892;2024-03-17T20:53:35;28.20;;;18.33;;
31594;SDS011;18200;48.726;8.892;2024-03-17T20:57:37;29.75;;;18.23;;
31594;SDS011;18200;48.726;8.892;2024-03-17T21:01:38;34.92;;;18.48;;
31594;SDS011;18200;48.726;8.892;2024-03-17T21:05:38;171.15;;;66.20;;
31594;SDS011;18200;48.726;8.892;2024-03-17T21:09:38;109.95;;;43.35;;
31594;SDS011;18200;48.726;8.892;2024-03-17T21:13:39;47.13;;;22.67;;
31594;SDS011;18200;48.726;8.892;2024-03-17T21:17:40;21.95;;;11.32;;
31594;SDS011;18200;48.726;8.892;2024-03-17T21:21:41;15.27;;;7.43;;
31594;SDS011;18200;48.726;8.892;2024-03-17T21:25:42;15.98;;;8.57;;
31594;SDS011;18200;48.726;8.892;2024-03-17T21:29:42;22.35;;;11.55;;
31594;SDS011;18200;48.726;8.892;2024-03-17T21:33:42;27.40;;;14.35;;
31594;SDS011;18200;48.726;8.892;2024-03-17T21:37:43;28.90;;;16.02;;
31594;SDS011;18200;48.726;8.892;2024-03-17T21:41:43;14.80;;;7.68;;
31594;SDS011;18200;48.726;8.892;2024-03-17T21:45:44;15.40;;;7.32;;
31594;SDS011;18200;48.726;8.892;2024-03-17T21:49:44;13.88;;;8.68;;
31594;SDS011;18200;48.726;8.892;2024-03-17T21:53:51;13.10;;;8.18;;
31594;SDS011;18200;48.726;8.892;2024-03-17T21:57:52;16.75;;;7.50;;
31594;SDS011;18200;48.726;8.892;2024-03-17T22:01:52;10.98;;;6.95;;
31594;SDS011;18200;48.726;8.892;2024-03-17T22:05:53;13.48;;;8.27;;
31594;SDS011;18200;48.726;8.892;2024-03-17T22:09:53;15.43;;;9.43;;
31594;SDS011;18200;48.726;8.892;2024-03-17T22:13:54;13.38;;;9.25;;
31594;SDS011;18200;48.726;8.892;2024-03-17T22:17:54;18.45;;;11.10;;
31594;SDS011;18200;48.726;8.892;2024-03-17T22:21:55;15.68;;;8.07;;
31594;SDS011;18200;48.726;8.892;2024-03-17T22:25:56;14.23;;;8.18;;
31594;SDS011;18200;48.726;8.892;2024-03-17T22:29:58;16.35;;;9.32;;
31594;SDS011;18200;48.726;8.892;2024-03-17T22:33:58;15.25;;;8.95;;
31594;SDS011;18200;48.726;8.892;2024-03-17T22:37:59;17.70;;;10.07;;
31594;SDS011;18200;48.726;8.892;2024-03-17T22:41:59;16.73;;;10.02;;
31594;SDS011;18200;48.726;8.892;2024-03-17T22:46:00;23.10;;;14.40;;
31594;SDS011;18200;48.726;8.892;2024-03-17T22:50:03;16.75;;;12.35;;
31594;SDS011;18200;48.726;8.892;2024-03-17T22:54:04;11.98;;;8.38;;
31594;SDS011;18200;48.726;8.892;2024-03-17T22:58:05;17.67;;;9.55;;
31594;SDS011;18200;48.726;8.892;2024-03-17T23:02:06;18.15;;;10.20;;
31594;SDS011;18200;48.726;8.892;2024-03-17T23:06:07;18.02;;;8.60;;
31594;SDS011;18200;48.726;8.892;2024-03-17T23:10:11;11.77;;;8.00;;
31594;SDS011;18200;48.726;8.892;2024-03-17T23:14:11;14.95;;;9.23;;
31594;SDS011;18200;48.726;8.892;2024-03-17T23:18:11;14.07;;;9.15;;
31594;SDS011;18200;48.726;8.892;2024-03-17T23:22:12;16.75;;;9.07;;
31594;SDS011;18200;48.726;8.892;2024-03-17T23:26:12;14.80;;;8.63;;
31594;SDS011;18200;48.726;8.892;2024-03-17T23:30:16;10.02;;;8.25;;
31594;SDS011;18200;48.726;8.892;2024-03-17T23:34:16;14.05;;;8.52;;
31594;SDS011;18200;48.726;8.892;2024-03-17T23:38:17;15.95;;;8.35;;
31594;SDS011;18200;48.726;8.892;2024-03-17T23:42:18;13.90;;;8.20;;
31594;SDS011;18200;48.726;8.892;2024-03-17T23:46:19;20.40;;;8.82;;
31594;SDS011;18200;48.726;8.892;2024-03-17T23:50:20;12.15;;;8.27;;
31594;SDS011;18200;48.726;8.892;2024-03-17T23:54:20;10.98;;;8.00;;
31594;SDS011;18200;48.726;8.892;2024-03-17T23:58:20;15.10;;;8.75;;
